Time;durP1;ratioP1;P1;durP2;ratioP2;P2;SDS_P1;SDS_P2;PMS_P1;PMS_P2;Temp;Humidity;BMP_temperature;BMP_pressure;BME280_temperature;BME280_humidity;BME280_pressure;Samples;Min_cycle;Max_cycle;Signal;HPM_P1;HPM_P2
2022/12/16 00:01:13;;;;;;;52.50;35.28;;;0.90;99.90;;;;;;5089632;28;20490;-74
2022/12/16 00:03:40;;;;;;;59.08;35.78;;;0.90;99.90;;;;;;5091166;28;20498;-74
2022/12/16 00:06:07;;;;;;;52.03;35.17;;;0.90;99.90;;;;;;5091042;28;20398;-74
2022/12/16 00:08:36;;;;;;;58.13;35.77;;;0.90;99.90;;;;;;5091836;28;20402;-74
2022/12/16 00:11:03;;;;;;;57.90;35.40;;;0.90;99.90;;;;;;5088825;28;20406;-74
2022/12/16 00:13:30;;;;;;;53.17;33.60;;;0.90;99.90;;;;;;5074518;28;20431;-74
2022/12/16 00:15:57;;;;;;;53.17;33.72;;;0.90;99.90;;;;;;5085971;28;20397;-74
2022/12/16 00:18:24;;;;;;;49.78;33.35;;;0.90;99.90;;;;;;5089451;28;20766;-74
2022/12/16 00:20:52;;;;;;;52.92;33.88;;;0.90;99.90;;;;;;5089232;28;20543;-74
2022/12/16 00:23:18;;;;;;;53.35;33.30;;;0.90;99.90;;;;;;5079052;28;20473;-74
2022/12/16 00:25:45;;;;;;;51.08;32.67;;;0.90;99.90;;;;;;5086425;28;20409;-74
2022/12/16 00:28:12;;;;;;;48.60;32.13;;;1.00;99.90;;;;;;5080048;28;20403;-74
2022/12/16 00:30:38;;;;;;;45.75;29.17;;;1.00;99.90;;;;;;5086692;28;20406;-74
2022/12/16 00:33:04;;;;;;;46.35;29.70;;;1.00;99.90;;;;;;5088211;28;20402;-74
2022/12/16 00:35:30;;;;;;;47.92;30.35;;;1.00;99.90;;;;;;5089708;28;20536;-74
2022/12/16 00:37:56;;;;;;;48.17;30.67;;;1.00;99.90;;;;;;5089262;28;21011;-74
2022/12/16 00:40:22;;;;;;;45.80;29.70;;;1.00;99.90;;;;;;5089574;28;20406;-74
2022/12/16 00:42:48;;;;;;;46.50;28.48;;;1.00;99.90;;;;;;5088227;28;20433;-74
2022/12/16 00:45:14;;;;;;;38.80;26.70;;;1.00;99.90;;;;;;5088268;28;20430;-74
2022/12/16 00:47:39;;;;;;;32.95;23.80;;;1.10;99.90;;;;;;5088432;28;20762;-74
2022/12/16 00:50:06;;;;;;;33.00;21.57;;;1.10;99.90;;;;;;5089069;28;20394;-74
2022/12/16 00:52:31;;;;;;;25.73;19.25;;;1.20;99.90;;;;;;5089938;28;20968;-74
2022/12/16 00:54:57;;;;;;;24.40;17.30;;;1.30;99.90;;;;;;5088226;28;20556;-74
2022/12/16 00:57:23;;;;;;;24.10;16.27;;;1.40;99.90;;;;;;5090410;28;20411;-74
2022/12/16 00:59:48;;;;;;;16.83;13.90;;;1.50;99.90;;;;;;5090174;28;20410;-74
2022/12/16 01:02:14;;;;;;;19.35;13.73;;;1.60;99.90;;;;;;5090310;28;20405;-74
2022/12/16 01:04:40;;;;;;;18.45;13.35;;;1.70;99.90;;;;;;5090137;28;20406;-74
2022/12/16 01:07:05;;;;;;;16.27;12.00;;;1.80;99.90;;;;;;5089004;28;20417;-74
2022/12/16 01:09:31;;;;;;;16.90;12.47;;;1.80;99.90;;;;;;5089905;28;20486;-74
2022/12/16 01:11:56;;;;;;;15.77;12.43;;;1.90;99.90;;;;;;5079532;28;20407;-74
2022/12/16 01:14:22;;;;;;;17.47;12.53;;;1.90;99.90;;;;;;5085658;28;20437;-74
2022/12/16 01:16:48;;;;;;;17.33;11.90;;;1.90;99.90;;;;;;5088870;28;20491;-74
2022/12/16 01:19:13;;;;;;;17.90;12.43;;;2.00;99.90;;;;;;5076313;28;20986;-74
2022/12/16 01:21:39;;;;;;;16.23;12.33;;;2.00;99.90;;;;;;5088662;28;20490;-74
2022/12/16 01:24:05;;;;;;;17.15;12.20;;;2.00;99.90;;;;;;5085860;28;20404;-74
2022/12/16 01:26:30;;;;;;;18.30;12.90;;;2.00;99.90;;;;;;5078644;28;20402;-74
2022/12/16 01:28:56;;;;;;;20.93;13.30;;;2.10;99.90;;;;;;5087310;28;20776;-74
2022/12/16 01:31:23;;;;;;;17.08;12.02;;;2.00;99.90;;;;;;5074852;28;20595;-74
2022/12/16 01:33:49;;;;;;;16.00;12.25;;;2.00;99.90;;;;;;5085622;28;20838;-74
2022/12/16 01:36:15;;;;;;;15.40;11.00;;;2.00;99.90;;;;;;5089709;28;20402;-74
2022/12/16 01:38:43;;;;;;;13.95;10.80;;;2.10;99.90;;;;;;5089779;28;20507;-74
2022/12/16 01:41:10;;;;;;;15.07;9.52;;;2.10;99.90;;;;;;5080376;28;20436;-74
2022/12/16 01:43:37;;;;;;;13.35;9.70;;;2.10;99.90;;;;;;5085781;28;20416;-74
2022/12/16 01:46:15;;;;;;;13.63;9.77;;;2.20;99.90;;;;;;5089173;28;20406;-74
2022/12/16 01:48:56;;;;;;;14.60;10.50;;;2.20;99.90;;;;;;5088933;28;20669;-74
2022/12/16 01:51:31;;;;;;;13.43;9.27;;;2.20;99.90;;;;;;5086206;28;20420;-74
2022/12/16 01:54:07;;;;;;;13.65;9.52;;;2.20;99.90;;;;;;5078357;28;20437;-74
2022/12/16 01:56:35;;;;;;;12.90;9.20;;;2.20;99.90;;;;;;5088777;28;20406;-74
2022/12/16 01:59:01;;;;;;;15.15;10.20;;;2.20;99.90;;;;;;5084123;28;20412;-74
2022/12/16 02:01:27;;;;;;;13.10;10.13;;;2.20;99.90;;;;;;5086825;28;20835;-74
2022/12/16 02:03:56;;;;;;;19.35;11.35;;;2.20;99.90;;;;;;5089205;28;20421;-74
2022/12/16 02:06:22;;;;;;;14.70;10.83;;;2.30;99.90;;;;;;5088384;28;20475;-74
2022/12/16 02:08:54;;;;;;;17.40;11.27;;;2.20;99.90;;;;;;5088840;28;20475;-74
2022/12/16 02:11:38;;;;;;;15.93;11.75;;;2.20;99.90;;;;;;5087894;28;20405;-74
2022/12/16 02:14:44;;;;;;;14.88;11.85;;;2.20;99.90;;;;;;5088207;28;20430;-74
2022/12/16 02:17:42;;;;;;;14.73;11.60;;;2.20;99.90;;;;;;5034209;28;20903;-74
2022/12/16 02:20:24;;;;;;;16.15;12.48;;;2.20;99.90;;;;;;5024738;28;20842;-74
2022/12/16 02:23:01;;;;;;;16.85;12.73;;;2.20;99.90;;;;;;5081082;28;20409;-74
2022/12/16 02:26:03;;;;;;;16.40;13.25;;;2.20;99.90;;;;;;5074647;28;20416;-74
2022/12/16 02:28:53;;;;;;;20.17;14.75;;;2.30;99.90;;;;;;5070996;28;20933;-74
2022/12/16 02:31:31;;;;;;;20.13;15.25;;;2.30;99.90;;;;;;5075413;28;20414;-74
2022/12/16 02:34:16;;;;;;;20.33;15.77;;;2.30;99.90;;;;;;5088338;28;20414;-74
2022/12/16 02:37:12;;;;;;;22.15;16.98;;;2.30;99.90;;;;;;5088246;28;20398;-74
2022/12/16 02:40:26;;;;;;;24.20;18.13;;;2.30;99.90;;;;;;5080043;28;20420;-74
2022/12/16 02:43:00;;;;;;;24.45;18.80;;;2.30;99.90;;;;;;4988304;28;20463;-74
2022/12/16 02:45:29;;;;;;;24.55;19.58;;;2.30;99.90;;;;;;5082901;28;20402;-74
2022/12/16 02:47:55;;;;;;;24.95;19.55;;;2.40;99.90;;;;;;5080561;28;20455;-74
2022/12/16 02:50:20;;;;;;;28.70;20.43;;;2.40;99.90;;;;;;5078312;28;21128;-74
2022/12/16 02:52:47;;;;;;;29.00;20.77;;;2.40;99.90;;;;;;5086755;28;21011;-74
2022/12/16 02:55:13;;;;;;;27.80;20.52;;;2.40;99.90;;;;;;5085728;28;20422;-74
2022/12/16 02:57:38;;;;;;;30.80;20.90;;;2.40;99.90;;;;;;5087495;28;20491;-74
2022/12/16 03:00:14;;;;;;;30.90;20.60;;;2.40;99.90;;;;;;5087685;28;20406;-74
2022/12/16 03:03:00;;;;;;;28.45;19.90;;;2.40;99.90;;;;;;5087025;28;20459;-74
2022/12/16 03:05:35;;;;;;;26.65;17.77;;;2.40;99.90;;;;;;5088208;28;20485;-74
2022/12/16 03:08:06;;;;;;;28.63;19.58;;;2.40;99.90;;;;;;5086824;28;20459;-74
2022/12/16 03:10:37;;;;;;;37.08;22.88;;;2.40;99.90;;;;;;5087877;28;20918;-74
2022/12/16 03:13:04;;;;;;;38.50;25.27;;;2.40;99.90;;;;;;5085877;28;20943;-74
2022/12/16 03:15:32;;;;;;;39.40;25.80;;;2.40;99.90;;;;;;5076305;28;20560;-74
2022/12/16 03:18:01;;;;;;;41.15;28.00;;;2.40;99.90;;;;;;5085145;28;20486;-73
2022/12/16 03:20:49;;;;;;;45.25;29.15;;;2.40;99.90;;;;;;5074947;28;20399;-74
2022/12/16 03:23:21;;;;;;;43.15;27.63;;;2.40;99.90;;;;;;5090528;28;20552;-74
2022/12/16 03:25:49;;;;;;;37.13;27.60;;;2.30;99.90;;;;;;5087003;28;20402;-74
2022/12/16 03:28:46;;;;;;;37.42;26.77;;;2.40;99.90;;;;;;5086563;28;20414;-74
2022/12/16 03:31:18;;;;;;;45.00;29.50;;;2.30;99.90;;;;;;5076688;28;20410;-74
2022/12/16 03:34:04;;;;;;;42.25;29.15;;;2.20;99.90;;;;;;5088026;28;20444;-74
2022/12/16 03:36:33;;;;;;;40.63;28.58;;;2.10;99.90;;;;;;5094723;28;20913;-74
2022/12/16 03:39:00;;;;;;;40.50;27.80;;;2.00;99.90;;;;;;5087399;28;20477;-74
2022/12/16 03:41:27;;;;;;;39.15;27.80;;;1.90;99.90;;;;;;5086713;28;20401;-74
2022/12/16 03:43:53;;;;;;;39.67;28.42;;;1.80;99.90;;;;;;5087314;28;20412;-74
2022/12/16 03:46:19;;;;;;;42.13;30.20;;;1.80;99.90;;;;;;5087727;28;20402;-74
2022/12/16 03:48:49;;;;;;;47.38;32.13;;;1.80;99.90;;;;;;5086122;28;20477;-74
2022/12/16 03:51:15;;;;;;;49.38;33.63;;;1.70;99.90;;;;;;5087208;28;20394;-74
2022/12/16 03:53:41;;;;;;;50.55;34.08;;;1.60;99.90;;;;;;5087453;28;20434;-74
2022/12/16 03:56:07;;;;;;;52.22;35.55;;;1.60;99.90;;;;;;5087338;28;20493;-74
2022/12/16 03:58:34;;;;;;;57.65;37.17;;;1.60;99.90;;;;;;5087622;28;20398;-74
2022/12/16 04:01:00;;;;;;;59.38;37.55;;;1.50;99.90;;;;;;5086690;28;20402;-74
2022/12/16 04:03:26;;;;;;;57.88;39.10;;;1.40;99.90;;;;;;5084625;28;20413;-74
2022/12/16 04:05:51;;;;;;;56.90;38.60;;;1.30;99.90;;;;;;5087328;28;20394;-74
2022/12/16 04:08:17;;;;;;;60.27;38.43;;;1.30;99.90;;;;;;5086274;28;20840;-74
2022/12/16 04:24:31;;;;;;;70.22;42.80;;;1.00;99.90;;;;;;5076761;28;20390;-73
2022/12/16 04:32:25;;;;;;;72.30;43.60;;;0.90;99.90;;;;;;5071052;28;20410;-73
2022/12/16 04:34:52;;;;;;;67.07;44.15;;;0.90;99.90;;;;;;5081879;28;20513;-73
